This demonstration page uses our WeatherBlox Daily Observations layout. Learn more.

39.29038, -76.61219

Hourly Observations for July 4, 2016

Temp ( °F °C ) Dew Point ( °F °C ) Humidity (%) Winds ( mph kmh ) Pressure ( in mb ) Visibility ( mi km ) Precip ( " mm )
12:54 am 00:54 undefined 69 20.6 62 16.7 78 78 undefined N/A 30.11 1020 N/A 0 0
1:54 am 01:54 undefined 69 20.6 62 16.7 78 78 undefined N/A 30.1 1019 N/A 0 0
2:54 am 02:54 undefined 69 20.6 62 16.7 78 78 undefined N/A 30.09 1019 N/A 0 0
3:54 am 03:54 undefined 69 20.6 62 16.7 78 78 undefined N/A 30.08 1019 N/A 0 0
4:54 am 04:54 undefined 69 20.6 62 16.7 78 78 undefined N/A 30.09 1019 N/A 0 0
5:54 am 05:54 undefined 69 20.6 63 17.2 81 81 undefined N/A 30.1 1019 N/A 0 0
6:54 am 06:54 undefined 70 21.1 64 17.8 82 82 undefined N/A 30.1 1019 N/A 0 0
7:54 am 07:54 undefined 70 21.1 65 18.3 84 84 undefined N/A 30.11 1020 N/A 0 0
8:54 am 08:54 undefined 72 22.2 65 18.3 79 79 undefined N/A 30.1 1019 N/A 0 0
9:54 am 09:54 undefined 74 23.3 64 17.8 71 71 undefined N/A 30.09 1019 N/A 0 0
10:54 am 10:54 undefined 73 22.8 63 17.2 71 71 undefined N/A 30.1 1019 N/A 0 0
11:54 am 11:54 undefined 74 23.3 63 17.2 69 69 undefined N/A 30.08 1019 N/A 0 0
12:54 pm 12:54 undefined 74 23.3 64 17.8 71 71 undefined N/A 30.08 1019 N/A 0 0
1:54 pm 13:54 undefined 73 22.8 66 18.9 79 79 undefined N/A 30.06 1018 N/A 0 0
2:54 pm 14:54 undefined 73 22.8 67 19.4 81 81 undefined N/A 30.04 1017 N/A 0 0
3:54 pm 15:54 undefined 71 21.7 68 20 90 90 undefined N/A 30.01 1016 N/A 0 0
4:54 pm 16:54 undefined 72 22.2 69 20.6 91 91 undefined N/A 30 1016 N/A 0.02 0.508
5:54 pm 17:54 undefined 72 22.2 70 21.1 94 94 undefined N/A 29.97 1015 N/A 0.1 2.54
6:54 pm 18:54 undefined 72 22.2 69 20.6 91 91 undefined N/A 29.97 1015 N/A 0.01 0.254
7:54 pm 19:54 undefined 72 22.2 70 21.1 94 94 undefined N/A 29.95 1014 N/A 0.03 0.762
8:54 pm 20:54 undefined 72 22.2 70 21.1 94 94 undefined N/A 29.93 1014 N/A 0.01 0.254
9:54 pm 21:54 undefined 73 22.8 70 21.1 90 90 undefined N/A 29.94 1014 N/A 0 0
10:54 pm 22:54 undefined 73 22.8 71 21.7 94 94 undefined N/A 29.92 1013 N/A 0 0
11:54 pm 23:54 undefined 73 22.8 72 22.2 96 96 undefined N/A 29.9 1012 N/A 0.06 1.524

Powered by AerisWeather